Terminal Aerodrome Forecast
Issued by NWS

Home | Current Version | Previous Version | Text Only | Print | Product List | Glossary On
Versions: 1 2 3 4 5 6 7 8 9 10 11 12 13 14 15 16 17 18 19 20 21
540
FTUS46 KSEW 271406 AAA
TAFPAE
TAF AMD
KPAE 271406Z 2714/2812 VRB04KT P6SM VCSH SCT011 BKN025 OVC060
      TEMPO 2714/2717 1SM -SN BR BKN009 OVC020
     FM271700 17008KT P6SM VCSH BKN020 BKN045
     FM272200 22006KT P6SM VCSH BKN030 BKN050
     FM280200 33005KT P6SM VCSH BKN030=

USA.gov is the U.S. government's official web portal to all federal, state and local government web resources and services.